createdAt,value
2019-01-22T00:00:31.414Z,31.68
2019-01-22T00:03:00.869Z,31.20
2019-01-22T00:05:30.389Z,32.35
2019-01-22T00:08:01.694Z,30.52
2019-01-22T00:10:31.134Z,33.30
2019-01-22T00:13:00.559Z,31.48
2019-01-22T00:15:30.036Z,30.85
2019-01-22T00:17:59.458Z,30.68
2019-01-22T00:20:28.917Z,29.32
2019-01-22T00:23:02.824Z,30.43
2019-01-22T00:25:29.480Z,32.48
2019-01-22T00:27:59.104Z,31.48
2019-01-22T00:30:28.569Z,29.77
2019-01-22T00:32:57.989Z,27.67
2019-01-22T00:35:27.453Z,28.00
2019-01-22T00:37:56.899Z,30.92
2019-01-22T00:40:26.697Z,30.27
2019-01-22T00:42:56.119Z,29.95
2019-01-22T00:45:25.599Z,30.80
2019-01-22T00:47:55.053Z,31.80
2019-01-22T00:50:24.499Z,30.65
2019-01-22T00:52:53.993Z,30.23
2019-01-22T00:55:23.792Z,29.75
2019-01-22T00:57:53.298Z,29.70
2019-01-22T01:00:33.775Z,28.07
2019-01-22T01:03:03.210Z,29.63
2019-01-22T01:05:33.005Z,31.10
2019-01-22T01:08:02.422Z,32.88
2019-01-22T01:10:31.880Z,31.80
2019-01-22T01:13:01.306Z,29.45
2019-01-22T01:15:30.780Z,29.85
2019-01-22T01:18:00.605Z,31.40
2019-01-22T01:20:30.112Z,29.32
2019-01-22T01:22:59.572Z,31.12
2019-01-22T01:25:29.053Z,32.78
2019-01-22T01:27:58.483Z,32.55
2019-01-22T01:30:27.949Z,32.85
2019-01-22T01:32:57.372Z,31.95
2019-01-22T01:35:26.852Z,30.50
2019-01-22T01:37:56.283Z,23.10
2019-01-22T01:40:25.765Z,27.40
2019-01-22T01:42:55.202Z,30.52
2019-01-22T01:45:25.076Z,30.30
2019-01-22T01:47:54.508Z,29.52
2019-01-22T01:50:23.962Z,28.90
2019-01-22T01:52:53.391Z,29.72
2019-01-22T01:55:22.850Z,33.00
2019-01-22T01:57:52.270Z,30.20
2019-01-22T02:00:22.928Z,30.43
2019-01-22T02:02:52.409Z,28.65
2019-01-22T02:05:21.820Z,33.65
2019-01-22T02:07:51.262Z,30.82
2019-01-22T02:10:23.061Z,28.65
2019-01-22T02:13:19.941Z,28.12
2019-01-22T02:16:23.347Z,25.12
2019-01-22T02:19:22.169Z,26.37
2019-01-22T02:22:42.623Z,27.80
2019-01-22T02:25:23.389Z,25.37
2019-01-22T02:28:23.399Z,29.87
2019-01-22T02:31:36.729Z,27.82
2019-01-22T02:34:46.080Z,28.47
2019-01-22T02:37:57.834Z,26.07
2019-01-22T02:41:29.467Z,27.07
2019-01-22T02:44:48.889Z,23.05
2019-01-22T02:47:44.346Z,27.42
2019-01-22T02:50:51.822Z,25.95
2019-01-22T02:53:26.045Z,26.23
2019-01-22T02:56:21.458Z,26.02
2019-01-22T02:59:34.570Z,26.40
2019-01-22T03:03:06.168Z,27.05
2019-01-22T03:06:05.118Z,29.60
2019-01-22T03:09:05.514Z,26.37
2019-01-22T03:11:55.454Z,26.25
2019-01-22T03:14:46.900Z,26.10
2019-01-22T03:18:00.235Z,25.90
2019-01-22T03:21:16.732Z,21.77
2019-01-22T03:24:05.401Z,26.27
2019-01-22T03:27:20.570Z,27.42
2019-01-22T03:30:24.598Z,27.45
2019-01-22T03:33:19.666Z,25.60
2019-01-22T03:36:31.879Z,30.20
2019-01-22T03:39:50.373Z,27.70
2019-01-22T03:42:49.629Z,27.20
2019-01-22T03:45:49.686Z,28.40
2019-01-22T03:48:56.394Z,28.38
2019-01-22T03:51:51.862Z,31.30
2019-01-22T03:55:14.523Z,27.48
2019-01-22T03:57:49.430Z,30.25
2019-01-22T04:00:29.517Z,29.65
2019-01-22T04:02:59.041Z,31.12
2019-01-22T04:05:28.538Z,30.97
2019-01-22T04:07:57.961Z,29.00
2019-01-22T04:10:45.298Z,26.15
2019-01-22T04:13:14.738Z,27.60
2019-01-22T04:15:44.681Z,27.85
2019-01-22T04:18:14.121Z,26.87
2019-01-22T04:20:46.322Z,27.87
2019-01-22T04:23:25.695Z,26.68
2019-01-22T04:26:23.444Z,24.82
2019-01-22T04:29:34.734Z,22.45
2019-01-22T04:32:35.714Z,24.87
2019-01-22T04:35:46.700Z,28.40
2019-01-22T04:39:06.039Z,24.75
2019-01-22T04:42:16.509Z,24.40
2019-01-22T04:45:13.337Z,23.65
2019-01-22T04:48:26.283Z,26.23
2019-01-22T04:51:08.632Z,24.80
2019-01-22T04:54:09.784Z,25.00
2019-01-22T04:57:09.930Z,24.45
2019-01-22T05:00:26.357Z,25.50
2019-01-22T05:03:33.630Z,25.88
2019-01-22T05:06:29.427Z,26.50
2019-01-22T05:09:38.720Z,26.25
2019-01-22T05:12:31.603Z,26.40
2019-01-22T05:15:45.077Z,24.37
2019-01-22T05:18:31.385Z,24.77
2019-01-22T05:21:39.253Z,27.98
2019-01-22T05:24:39.656Z,25.30
2019-01-22T05:27:16.373Z,27.05
2019-01-22T05:30:17.384Z,24.87
2019-01-22T05:33:36.966Z,22.75
2019-01-22T05:36:46.508Z,26.48
2019-01-22T05:39:38.158Z,24.40
2019-01-22T05:42:37.290Z,24.25
2019-01-22T05:45:40.630Z,24.10
2019-01-22T05:48:34.941Z,23.05
2019-01-22T05:51:41.510Z,25.05
2019-01-22T05:54:42.269Z,24.18
2019-01-22T05:57:26.081Z,23.67
2019-01-22T06:00:54.872Z,23.83
2019-01-22T06:04:01.244Z,24.23
2019-01-22T06:07:22.855Z,21.80
2019-01-22T06:10:35.196Z,25.48
2019-01-22T06:13:16.088Z,22.37
2019-01-22T06:16:27.980Z,20.68
2019-01-22T06:19:30.480Z,21.82
2019-01-22T06:23:04.229Z,25.60
2019-01-22T06:26:05.258Z,23.27
2019-01-22T06:29:25.292Z,24.47
2019-01-22T06:32:15.404Z,23.38
2019-01-22T06:35:35.003Z,24.32
2019-01-22T06:38:53.828Z,31.87
2019-01-22T06:42:06.730Z,32.93
2019-01-22T06:45:23.802Z,26.17
2019-01-22T06:48:30.017Z,24.07
2019-01-22T06:51:34.767Z,24.40
2019-01-22T06:54:32.516Z,24.18
2019-01-22T06:57:49.119Z,26.17
2019-01-22T07:00:54.601Z,24.72
2019-01-22T07:04:19.007Z,25.12
2019-01-22T07:06:58.545Z,25.97
2019-01-22T07:10:21.185Z,23.95
2019-01-22T07:13:22.532Z,26.70
2019-01-22T07:16:19.249Z,24.98
2019-01-22T07:19:08.553Z,25.10
2019-01-22T07:22:40.287Z,28.23
2019-01-22T07:25:41.650Z,24.55
2019-01-22T07:28:58.376Z,25.05
2019-01-22T07:31:39.016Z,27.70
2019-01-22T07:34:55.426Z,24.10
2019-01-22T07:38:09.017Z,28.25
2019-01-22T07:41:35.297Z,25.60
2019-01-22T07:44:12.935Z,24.40
2019-01-22T07:47:22.136Z,26.97
2019-01-22T07:50:24.637Z,25.50
2019-01-22T07:53:27.743Z,25.60
2019-01-22T07:56:53.717Z,26.25
2019-01-22T08:00:10.022Z,26.95
2019-01-22T08:03:39.434Z,26.40
2019-01-22T08:06:27.859Z,29.00
2019-01-22T08:09:27.637Z,25.10
2019-01-22T08:12:21.279Z,27.27
2019-01-22T08:15:40.845Z,26.50
2019-01-22T08:18:42.042Z,25.43
2019-01-22T08:21:44.377Z,26.82
2019-01-22T08:25:00.452Z,27.45
2019-01-22T08:27:48.085Z,26.48
2019-01-22T08:30:50.526Z,26.65
2019-01-22T08:34:13.007Z,27.22
2019-01-22T08:37:12.096Z,25.40
2019-01-22T08:40:28.570Z,28.65
2019-01-22T08:43:56.973Z,27.75
2019-01-22T08:47:22.523Z,26.05
2019-01-22T08:50:41.303Z,26.75
2019-01-22T08:53:29.974Z,27.85
2019-01-22T08:56:43.999Z,29.15
2019-01-22T09:00:06.862Z,26.48
2019-01-22T09:03:32.411Z,28.00
2019-01-22T09:06:46.159Z,26.25
2019-01-22T09:09:52.786Z,25.20
2019-01-22T09:12:42.073Z,26.80
2019-01-22T09:15:52.507Z,27.42
2019-01-22T09:19:11.816Z,27.22
2019-01-22T09:22:10.723Z,27.65
2019-01-22T09:25:07.616Z,27.82
2019-01-22T09:28:21.038Z,28.85
2019-01-22T09:31:37.648Z,28.52
2019-01-22T09:34:46.965Z,26.15
2019-01-22T09:37:48.152Z,29.87
2019-01-22T09:40:17.618Z,28.38
2019-01-22T09:42:47.081Z,29.87
2019-01-22T09:45:16.667Z,28.65
2019-01-22T09:47:46.130Z,28.73
2019-01-22T09:50:15.882Z,31.33
2019-01-22T09:52:45.357Z,28.57
2019-01-22T09:55:15.117Z,30.20
2019-01-22T09:57:44.580Z,30.05
2019-01-22T10:00:16.083Z,29.32
2019-01-22T10:02:45.549Z,28.27
2019-01-22T10:05:15.027Z,31.62
2019-01-22T10:07:44.595Z,29.45
2019-01-22T10:10:16.576Z,30.10
2019-01-22T10:12:46.042Z,28.02
2019-01-22T10:15:18.265Z,29.45
2019-01-22T10:17:47.885Z,32.10
2019-01-22T10:20:20.124Z,30.85
2019-01-22T10:22:50.450Z,30.50
2019-01-22T10:25:20.101Z,28.85
2019-01-22T10:27:49.572Z,27.70
2019-01-22T10:30:21.721Z,31.23
2019-01-22T10:32:51.246Z,32.33
2019-01-22T10:35:20.701Z,29.40
2019-01-22T10:37:50.170Z,30.10
2019-01-22T10:40:21.518Z,29.60
2019-01-22T10:42:51.060Z,29.52
2019-01-22T10:45:20.849Z,29.82
2019-01-22T10:47:50.318Z,28.42
2019-01-22T10:50:21.872Z,28.30
2019-01-22T10:52:51.334Z,31.12
2019-01-22T10:55:20.922Z,32.08
2019-01-22T10:57:50.376Z,29.92
2019-01-22T11:00:23.001Z,33.13
2019-01-22T11:02:52.552Z,32.98
2019-01-22T11:05:36.914Z,32.90
2019-01-22T11:08:06.708Z,31.02
2019-01-22T11:10:36.148Z,30.55
2019-01-22T11:13:06.229Z,29.37
2019-01-22T11:15:35.650Z,30.62
2019-01-22T11:18:05.702Z,31.25
2019-01-22T11:20:35.219Z,29.18
2019-01-22T11:23:05.019Z,30.15
2019-01-22T11:25:35.407Z,31.62
2019-01-22T11:28:05.276Z,31.37
2019-01-22T11:30:34.724Z,29.67
2019-01-22T11:33:04.264Z,28.52
2019-01-22T11:35:33.733Z,26.95
2019-01-22T11:38:03.178Z,32.58
2019-01-22T11:40:38.927Z,27.65
2019-01-22T11:43:08.449Z,27.80
2019-01-22T11:45:37.968Z,28.02
2019-01-22T11:48:09.776Z,28.92
2019-01-22T11:50:39.233Z,29.75
2019-01-22T11:53:08.697Z,30.08
2019-01-22T11:55:38.166Z,27.62
2019-01-22T11:58:07.858Z,28.90
2019-01-22T12:00:44.021Z,27.55
2019-01-22T12:03:13.465Z,25.40
2019-01-22T12:05:42.941Z,26.27
2019-01-22T12:08:12.564Z,25.30
2019-01-22T12:10:42.069Z,24.43
2019-01-22T12:13:11.610Z,23.87
2019-01-22T12:15:41.083Z,25.90
2019-01-22T12:18:10.538Z,25.35
2019-01-22T12:20:40.703Z,26.20
2019-01-22T12:23:10.173Z,24.55
2019-01-22T12:25:39.639Z,26.52
2019-01-22T12:28:09.079Z,23.52
2019-01-22T12:30:38.815Z,24.43
2019-01-22T12:33:08.357Z,23.52
2019-01-22T12:35:37.824Z,22.82
2019-01-22T12:38:07.381Z,24.43
2019-01-22T12:40:36.852Z,24.50
2019-01-22T12:43:07.173Z,25.23
2019-01-22T12:45:38.659Z,25.17
2019-01-22T12:48:09.360Z,26.00
2019-01-22T12:50:40.158Z,25.95
2019-01-22T12:53:11.546Z,26.62
2019-01-22T12:55:41.025Z,27.82
2019-01-22T12:58:10.676Z,26.75
2019-01-22T13:00:40.434Z,26.45
2019-01-22T13:03:10.067Z,27.67
2019-01-22T13:05:48.604Z,30.45
2019-01-22T13:08:18.040Z,25.72
2019-01-22T13:10:47.524Z,29.23
2019-01-22T13:13:18.319Z,28.40
2019-01-22T13:15:47.935Z,27.07
2019-01-22T13:18:17.384Z,26.55
2019-01-22T13:20:46.851Z,26.87
2019-01-22T13:23:16.285Z,24.05
2019-01-22T13:25:45.760Z,24.30
2019-01-22T13:28:15.199Z,26.37
2019-01-22T13:30:44.658Z,24.80
2019-01-22T13:33:14.103Z,22.42
2019-01-22T13:35:43.690Z,23.42
2019-01-22T13:38:13.123Z,22.85
2019-01-22T13:40:42.588Z,22.02
2019-01-22T13:43:12.028Z,24.90
2019-01-22T13:45:41.638Z,22.62
2019-01-22T13:48:14.300Z,24.07
2019-01-22T13:50:43.799Z,23.83
2019-01-22T13:53:13.316Z,25.88
2019-01-22T13:55:42.868Z,23.60
2019-01-22T13:58:12.966Z,21.42
2019-01-22T14:00:42.466Z,21.65
2019-01-22T14:03:12.051Z,21.10
2019-01-22T14:05:41.497Z,21.27
2019-01-22T14:08:10.968Z,19.45
2019-01-22T14:10:40.395Z,19.82
2019-01-22T14:13:09.861Z,19.80
2019-01-22T14:15:41.306Z,20.68
2019-01-22T14:18:12.564Z,19.73
2019-01-22T14:20:42.014Z,22.62
2019-01-22T14:23:11.481Z,21.27
2019-01-22T14:25:40.905Z,20.53
2019-01-22T14:28:10.400Z,20.90
2019-01-22T14:30:41.196Z,21.23
2019-01-22T14:33:11.016Z,21.67
2019-01-22T14:35:40.629Z,21.43
2019-01-22T14:38:10.366Z,18.97
2019-01-22T14:40:40.001Z,19.10
2019-01-22T14:43:09.819Z,20.73
2019-01-22T14:45:39.367Z,21.10
2019-01-22T14:48:08.803Z,20.90
2019-01-22T14:50:38.445Z,21.70
2019-01-22T14:53:07.981Z,21.07
2019-01-22T14:55:37.419Z,21.87
2019-01-22T14:58:07.111Z,23.03
2019-01-22T15:00:36.895Z,20.57
2019-01-22T15:03:06.505Z,24.17
2019-01-22T15:05:36.200Z,22.27
2019-01-22T15:08:05.878Z,21.70
2019-01-22T15:10:35.580Z,22.70
2019-01-22T15:13:05.772Z,26.17
2019-01-22T15:15:35.376Z,24.17
2019-01-22T15:18:05.408Z,21.93
2019-01-22T15:20:35.061Z,21.50
2019-01-22T15:23:04.698Z,22.80
2019-01-22T15:25:34.388Z,22.27
2019-01-22T15:28:04.276Z,24.37
2019-01-22T15:30:36.125Z,22.97
2019-01-22T15:33:06.775Z,22.60
2019-01-22T15:35:36.485Z,21.77
2019-01-22T15:38:06.581Z,22.67
2019-01-22T15:40:36.036Z,24.10
2019-01-22T15:43:05.722Z,21.70
2019-01-22T15:45:35.554Z,21.07
2019-01-22T15:48:05.384Z,21.30
2019-01-22T15:50:34.950Z,23.20
2019-01-22T15:53:04.481Z,21.23
2019-01-22T15:55:36.236Z,21.30
2019-01-22T15:58:06.799Z,21.00
2019-01-22T16:00:36.218Z,20.97
2019-01-22T16:03:06.176Z,20.77
2019-01-22T16:05:35.614Z,23.47
2019-01-22T16:08:06.572Z,24.20
2019-01-22T16:10:36.298Z,23.83
2019-01-22T16:13:06.897Z,21.53
2019-01-22T16:15:36.318Z,22.33
2019-01-22T16:18:05.872Z,21.63
2019-01-22T16:20:35.295Z,35.50
2019-01-22T16:23:04.770Z,29.13
2019-01-22T16:25:34.252Z,22.70
2019-01-22T16:28:03.686Z,22.47
2019-01-22T16:30:33.161Z,22.20
2019-01-22T16:33:02.598Z,22.57
2019-01-22T16:35:32.117Z,20.87
2019-01-22T16:38:01.540Z,24.00
2019-01-22T16:40:31.052Z,24.30
2019-01-22T16:43:00.474Z,23.10
2019-01-22T16:45:35.089Z,21.90
2019-01-22T16:48:04.831Z,22.50
2019-01-22T16:50:40.491Z,22.87
2019-01-22T16:53:13.378Z,24.60
2019-01-22T16:55:42.857Z,23.10
2019-01-22T16:58:12.309Z,22.23
2019-01-22T17:00:41.988Z,25.50
2019-01-22T17:03:11.413Z,21.97
2019-01-22T17:05:41.015Z,22.47
2019-01-22T17:08:10.445Z,22.50
2019-01-22T17:10:39.925Z,22.77
2019-01-22T17:13:09.550Z,23.20
2019-01-22T17:15:39.061Z,21.83
2019-01-22T17:18:09.390Z,23.57
2019-01-22T17:20:40.258Z,23.60
2019-01-22T17:23:09.691Z,23.43
2019-01-22T17:25:39.686Z,22.10
2019-01-22T17:28:09.092Z,21.73
2019-01-22T17:30:38.565Z,22.27
2019-01-22T17:33:36.343Z,22.00
2019-01-22T17:36:06.049Z,22.23
2019-01-22T17:38:35.616Z,23.30
2019-01-22T17:41:05.075Z,22.17
2019-01-22T17:43:34.535Z,22.33
2019-01-22T17:46:04.043Z,23.77
2019-01-22T17:48:33.479Z,25.20
2019-01-22T17:51:02.924Z,22.77
2019-01-22T17:53:32.366Z,22.43
2019-01-22T17:56:01.825Z,22.63
2019-01-22T17:58:31.266Z,25.47
2019-01-22T18:01:00.734Z,24.97
2019-01-22T18:03:30.242Z,20.93
2019-01-22T18:05:59.729Z,21.73
2019-01-22T18:08:29.169Z,24.37
2019-01-22T18:10:58.624Z,22.83
2019-01-22T18:13:28.063Z,22.87
2019-01-22T18:15:57.534Z,23.27
2019-01-22T18:18:26.972Z,22.07
2019-01-22T18:20:56.423Z,23.63
2019-01-22T18:23:25.862Z,23.57
2019-01-22T18:25:55.328Z,24.07
2019-01-22T18:28:24.781Z,23.43
2019-01-22T18:30:54.265Z,25.13
2019-01-22T18:33:23.698Z,24.30
2019-01-22T18:35:53.162Z,27.17
2019-01-22T18:38:22.598Z,20.77
2019-01-22T18:40:52.091Z,25.90
2019-01-22T18:43:21.510Z,25.30
2019-01-22T18:45:51.002Z,24.23
2019-01-22T18:48:20.420Z,27.70
2019-01-22T18:50:49.874Z,27.20
2019-01-22T18:53:19.361Z,23.70
2019-01-22T18:55:48.882Z,29.10
2019-01-22T18:58:18.449Z,23.87
2019-01-22T19:00:48.177Z,24.77
2019-01-22T19:03:17.754Z,25.60
2019-01-22T19:05:47.862Z,26.37
2019-01-22T19:08:17.367Z,26.80
2019-01-22T19:10:46.799Z,27.73
2019-01-22T19:13:16.271Z,26.07
2019-01-22T19:15:45.722Z,26.37
2019-01-22T19:18:15.324Z,24.00
2019-01-22T19:20:44.768Z,24.30
2019-01-22T19:23:14.241Z,24.57
2019-01-22T19:25:43.690Z,25.47
2019-01-22T19:28:13.142Z,25.00
2019-01-22T19:30:42.575Z,25.60
2019-01-22T19:33:12.043Z,27.70
2019-01-22T19:35:41.484Z,25.10
2019-01-22T19:38:10.943Z,23.23
2019-01-22T19:40:40.429Z,25.50
2019-01-22T19:43:09.901Z,24.77
2019-01-22T19:45:39.372Z,23.03
2019-01-22T19:48:08.836Z,23.50
2019-01-22T19:50:38.277Z,27.77
2019-01-22T19:53:07.773Z,25.83
2019-01-22T19:55:37.354Z,25.93
2019-01-22T19:58:06.957Z,25.07
2019-01-22T20:00:38.664Z,27.60
2019-01-22T20:03:09.232Z,24.13
2019-01-22T20:05:38.881Z,25.03
2019-01-22T20:08:09.207Z,23.12
2019-01-22T20:10:38.741Z,23.30
2019-01-22T20:13:08.622Z,25.20
2019-01-22T20:15:38.120Z,22.20
2019-01-22T20:18:07.946Z,22.82
2019-01-22T20:20:37.686Z,26.03
2019-01-22T20:23:07.448Z,25.90
2019-01-22T20:25:36.901Z,22.23
2019-01-22T20:28:08.226Z,24.05
2019-01-22T20:30:39.296Z,23.80
2019-01-22T20:33:09.278Z,23.67
2019-01-22T20:35:38.907Z,23.63
2019-01-22T20:38:08.789Z,27.40
2019-01-22T20:40:38.245Z,26.45
2019-01-22T20:43:07.706Z,28.07
2019-01-22T20:45:37.170Z,27.93
2019-01-22T20:48:06.816Z,25.13
2019-01-22T20:50:36.254Z,28.57
2019-01-22T20:53:06.126Z,25.97
2019-01-22T20:55:35.572Z,27.40
2019-01-22T20:58:05.686Z,27.23
2019-01-22T21:00:35.148Z,27.03
2019-01-22T21:03:04.628Z,25.40
2019-01-22T21:05:34.060Z,28.03
2019-01-22T21:08:03.597Z,27.83
2019-01-22T21:10:34.430Z,28.98
2019-01-22T21:13:04.009Z,28.57
2019-01-22T21:15:33.482Z,29.52
2019-01-22T21:18:03.057Z,25.88
2019-01-22T21:20:32.528Z,28.17
2019-01-22T21:23:01.967Z,27.98
2019-01-22T21:25:31.525Z,26.93
2019-01-22T21:28:01.930Z,26.70
2019-01-22T21:30:33.776Z,27.57
2019-01-22T21:33:04.282Z,27.60
2019-01-22T21:35:33.787Z,30.90
2019-01-22T21:38:03.229Z,29.65
2019-01-22T21:40:32.694Z,28.17
2019-01-22T21:43:02.173Z,28.35
2019-01-22T21:45:31.742Z,24.90
2019-01-22T21:48:01.237Z,26.52
2019-01-22T21:50:30.714Z,27.05
2019-01-22T21:53:00.201Z,27.17
2019-01-22T21:55:29.669Z,22.77
2019-01-22T21:57:59.110Z,26.20
2019-01-22T22:00:28.617Z,28.30
2019-01-22T22:02:58.066Z,24.03
2019-01-22T22:05:29.326Z,24.97
2019-01-22T22:07:58.878Z,23.90
2019-01-22T22:10:28.337Z,25.35
2019-01-22T22:12:57.843Z,26.55
2019-01-22T22:15:27.303Z,27.73
2019-01-22T22:17:56.769Z,27.65
2019-01-22T22:20:26.401Z,28.83
2019-01-22T22:22:55.838Z,28.38
2019-01-22T22:25:25.325Z,28.00
2019-01-22T22:27:54.767Z,27.98
2019-01-22T22:30:33.173Z,27.37
2019-01-22T22:33:02.609Z,24.05
2019-01-22T22:35:32.082Z,27.87
2019-01-22T22:38:01.581Z,29.42
2019-01-22T22:40:31.055Z,28.23
2019-01-22T22:43:00.503Z,25.88
2019-01-22T22:45:30.013Z,26.03
2019-01-22T22:47:59.478Z,26.55
2019-01-22T22:50:31.086Z,24.20
2019-01-22T22:53:00.521Z,25.30
2019-01-22T22:55:30.042Z,25.50
2019-01-22T22:57:59.506Z,29.25
2019-01-22T23:00:46.249Z,23.98
2019-01-22T23:03:16.284Z,27.13
2019-01-22T23:05:45.745Z,25.50
2019-01-22T23:08:15.193Z,26.20
2019-01-22T23:10:44.675Z,22.55
2019-01-22T23:13:14.133Z,24.43
2019-01-22T23:15:43.613Z,26.48
2019-01-22T23:18:13.166Z,26.50
2019-01-22T23:20:42.710Z,25.67
2019-01-22T23:23:12.158Z,26.70
2019-01-22T23:25:41.629Z,25.55
2019-01-22T23:28:11.069Z,26.48
2019-01-22T23:30:40.589Z,27.62
2019-01-22T23:33:10.029Z,26.90
2019-01-22T23:35:39.495Z,25.70
2019-01-22T23:38:08.936Z,25.70
2019-01-22T23:40:38.388Z,25.53
2019-01-22T23:43:07.891Z,26.62
2019-01-22T23:45:37.374Z,25.15
2019-01-22T23:48:06.874Z,25.30
2019-01-22T23:50:36.370Z,27.13
2019-01-22T23:53:06.052Z,25.13
2019-01-22T23:55:35.499Z,24.83
2019-01-22T23:58:05.010Z,26.00
